Sand Lake, Florida
Current Conditions -  °F | °C
As of 5:53 PM on Thursday 18 Dec 2014 (Local Time) from KMCO Reporting Station
Broken Clouds Broken Clouds  
Wind Chill: 64°   Ceiling: 25000
Heat Index: 64°   Visibility: 10mi
Dew Point: 47°   Wind: 7mph
Humidity: 54%   Direction: 310°NW
Pressure: 30.12"   Gusts: NA
Location:  28.4565°N, 81.4676°W
Report Text: KMCO 182253Z 31006KT 10SM BKN250 18/08 A3012 RMK AO2 SLP199 T01780083
Loading
Personal Weather Stations






























Interactive Weather Map New forecast layout! Learn more

10-Day Weather Forecast

Advertisements
Track Severe Weather on mobile